Time;durP1;ratioP1;P1;durP2;ratioP2;P2;SDS_P1;SDS_P2;PMS_P1;PMS_P2;Temp;Humidity;BMP_temperature;BMP_pressure;BME280_temperature;BME280_humidity;BME280_pressure;Samples;Min_cycle;Max_cycle;Signal;HPM_P1;HPM_P2
2022/07/30 00:00:52;;;;;;;0.30;0.20;;;24.80;60.80;;;;;;6326348;27;21030;-41
2022/07/30 00:03:56;;;;;;;0.20;0.20;;;25.30;61.20;;;;;;6332808;27;20043;-40
2022/07/30 00:06:58;;;;;;;0.20;0.20;;;24.80;61.00;;;;;;6331314;27;20047;-39
2022/07/30 00:10:04;;;;;;;0.50;0.30;;;24.90;60.90;;;;;;6302274;27;20039;-41
2022/07/30 00:13:07;;;;;;;0.20;0.20;;;24.80;61.00;;;;;;6333973;27;20861;-40
2022/07/30 00:16:08;;;;;;;0.43;0.43;;;24.70;61.00;;;;;;6332682;27;20077;-40
2022/07/30 00:19:10;;;;;;;0.30;0.28;;;24.80;61.30;;;;;;6332085;27;20992;-39
2022/07/30 00:22:12;;;;;;;0.85;0.40;;;24.70;61.30;;;;;;6332356;27;20050;-40
2022/07/30 00:25:14;;;;;;;0.20;0.20;;;24.90;61.50;;;;;;6330287;27;20723;-39
2022/07/30 00:28:16;;;;;;;0.30;0.20;;;24.70;61.20;;;;;;6310087;27;21019;-39
2022/07/30 00:31:17;;;;;;;0.20;0.20;;;24.70;61.40;;;;;;6331238;27;21200;-40
2022/07/30 00:34:19;;;;;;;0.38;0.35;;;24.40;61.20;;;;;;6329529;27;20042;-40
2022/07/30 00:37:21;;;;;;;0.38;0.30;;;25.00;61.60;;;;;;6328884;27;21059;-41
2022/07/30 00:40:23;;;;;;;0.20;0.20;;;24.80;61.60;;;;;;6330202;27;20078;-39
2022/07/30 00:43:25;;;;;;;0.20;0.20;;;24.70;61.40;;;;;;6327542;27;20050;-40
2022/07/30 00:46:26;;;;;;;0.50;0.32;;;25.00;61.60;;;;;;6330104;27;20943;-39
2022/07/30 00:49:28;;;;;;;0.30;0.20;;;24.80;61.40;;;;;;6328528;27;20091;-41
2022/07/30 00:52:31;;;;;;;0.20;0.20;;;24.70;61.50;;;;;;6329185;27;20062;-40
2022/07/30 00:55:33;;;;;;;0.20;0.20;;;24.70;61.30;;;;;;6331233;27;20035;-41
2022/07/30 00:58:35;;;;;;;0.40;0.30;;;24.70;61.40;;;;;;6326770;27;20039;-39
2022/07/30 01:01:37;;;;;;;0.40;0.20;;;24.60;61.30;;;;;;6327753;27;20039;-41
2022/07/30 01:04:41;;;;;;;0.30;0.30;;;24.80;61.40;;;;;;6329877;27;20050;-40
2022/07/30 01:07:43;;;;;;;0.35;0.28;;;24.80;61.50;;;;;;6330212;27;20147;-40
2022/07/30 01:10:45;;;;;;;0.55;0.30;;;24.70;61.20;;;;;;6328942;27;20046;-39
2022/07/30 01:13:47;;;;;;;0.45;0.30;;;24.90;61.40;;;;;;6331631;27;20936;-40
2022/07/30 01:16:50;;;;;;;0.38;0.30;;;24.90;61.30;;;;;;6334102;27;20046;-39
2022/07/30 01:19:57;;;;;;;0.57;0.30;;;24.70;61.20;;;;;;6328186;27;20055;-39
2022/07/30 01:23:07;;;;;;;0.40;0.30;;;24.50;61.00;;;;;;6311589;27;20075;-39
2022/07/30 01:26:12;;;;;;;0.30;0.30;;;24.30;61.10;;;;;;6330235;27;20035;-40
2022/07/30 01:29:15;;;;;;;0.35;0.20;;;24.60;61.10;;;;;;6325595;27;20220;-39
2022/07/30 01:32:18;;;;;;;0.17;0.17;;;25.10;61.30;;;;;;6333958;27;20035;-39
2022/07/30 01:35:22;;;;;;;0.28;0.22;;;24.90;61.40;;;;;;6329667;27;20043;-40
2022/07/30 01:38:26;;;;;;;0.30;0.25;;;25.10;61.40;;;;;;6332272;27;21001;-41
2022/07/30 01:41:33;;;;;;;0.40;0.20;;;24.70;61.20;;;;;;6330619;27;20034;-41
2022/07/30 01:44:37;;;;;;;0.50;0.28;;;24.50;61.10;;;;;;6332624;27;20038;-39
2022/07/30 01:47:41;;;;;;;0.30;0.30;;;24.80;61.30;;;;;;6316946;27;20271;-39
2022/07/30 01:50:48;;;;;;;0.60;0.30;;;25.00;61.20;;;;;;6316683;27;20138;-39
2022/07/30 01:53:52;;;;;;;0.30;0.30;;;24.70;61.40;;;;;;6269514;27;20769;-40
2022/07/30 01:56:56;;;;;;;0.45;0.38;;;24.50;61.90;;;;;;6317839;27;20844;-40
2022/07/30 02:00:02;;;;;;;0.60;0.40;;;24.70;61.30;;;;;;6320144;27;20843;-39
2022/07/30 02:03:17;;;;;;;0.60;0.30;;;24.60;61.40;;;;;;6312354;27;20061;-39
2022/07/30 02:06:31;;;;;;;0.40;0.30;;;25.20;61.90;;;;;;6297657;27;20250;-39
2022/07/30 02:09:39;;;;;;;0.30;0.30;;;24.90;61.60;;;;;;6316056;27;20588;-39
2022/07/30 02:12:51;;;;;;;0.30;0.20;;;24.70;61.60;;;;;;6298390;27;20242;-41
2022/07/30 02:15:58;;;;;;;0.40;0.30;;;24.90;61.80;;;;;;6300991;27;20216;-41
2022/07/30 02:19:05;;;;;;;0.40;0.38;;;24.60;62.20;;;;;;6319855;27;20169;-39
2022/07/30 02:22:14;;;;;;;0.50;0.30;;;24.70;61.60;;;;;;6300783;27;20340;-39
2022/07/30 02:25:19;;;;;;;0.30;0.25;;;24.90;61.80;;;;;;6300368;27;20049;-39
2022/07/30 02:28:22;;;;;;;0.40;0.30;;;24.80;61.60;;;;;;6297313;27;20573;-40
2022/07/30 02:31:26;;;;;;;0.30;0.30;;;24.80;61.80;;;;;;6319658;27;20321;-40
2022/07/30 02:34:33;;;;;;;0.35;0.30;;;24.80;61.90;;;;;;6301666;27;20349;-40
2022/07/30 02:37:37;;;;;;;0.60;0.50;;;24.70;61.90;;;;;;6321227;27;20224;-40
2022/07/30 02:40:47;;;;;;;0.50;0.40;;;24.90;62.10;;;;;;6321779;27;20058;-41
2022/07/30 02:43:52;;;;;;;0.35;0.22;;;24.90;62.10;;;;;;6301307;27;20038;-40
2022/07/30 02:46:56;;;;;;;0.55;0.40;;;24.80;62.00;;;;;;6316555;27;20072;-38
2022/07/30 02:50:20;;;;;;;0.40;0.40;;;24.70;62.10;;;;;;6321577;27;20668;-39
2022/07/30 02:53:23;;;;;;;0.30;0.30;;;24.80;62.10;;;;;;6318764;27;20446;-41
2022/07/30 02:56:25;;;;;;;0.88;0.40;;;24.60;62.10;;;;;;6319025;27;20626;-39
2022/07/30 02:59:29;;;;;;;1.00;0.43;;;24.70;62.20;;;;;;6317870;27;20960;-39
2022/07/30 03:02:32;;;;;;;0.40;0.40;;;24.70;62.20;;;;;;6319612;27;20297;-39
2022/07/30 03:05:36;;;;;;;0.40;0.40;;;24.80;62.30;;;;;;6316219;27;20047;-42
2022/07/30 03:08:42;;;;;;;0.45;0.40;;;24.80;62.30;;;;;;6302511;27;20054;-40
2022/07/30 03:11:44;;;;;;;0.38;0.30;;;24.70;62.40;;;;;;6316858;27;20054;-40
2022/07/30 03:14:47;;;;;;;0.30;0.28;;;24.60;62.50;;;;;;6320902;27;20051;-40
2022/07/30 03:17:53;;;;;;;0.55;0.40;;;24.80;62.50;;;;;;6325820;27;20349;-38
2022/07/30 03:20:59;;;;;;;0.77;0.50;;;24.80;62.80;;;;;;6317157;27;20085;-39
2022/07/30 03:24:02;;;;;;;0.80;0.57;;;24.60;62.70;;;;;;6320088;27;20268;-39
2022/07/30 03:27:04;;;;;;;0.32;0.30;;;24.70;62.60;;;;;;6305796;27;20039;-39
2022/07/30 03:30:08;;;;;;;0.63;0.50;;;24.80;63.10;;;;;;6294316;27;20043;-41
2022/07/30 03:33:11;;;;;;;0.98;0.50;;;24.50;62.90;;;;;;6322676;27;20049;-41
2022/07/30 03:36:16;;;;;;;0.60;0.60;;;24.90;63.20;;;;;;6326549;27;20425;-39
2022/07/30 03:39:19;;;;;;;0.82;0.50;;;24.80;63.20;;;;;;6321766;27;20316;-39
2022/07/30 03:42:21;;;;;;;1.00;0.70;;;24.70;63.20;;;;;;6304018;27;20065;-39
2022/07/30 03:45:24;;;;;;;0.50;0.40;;;24.70;63.40;;;;;;6322476;27;20035;-39
2022/07/30 03:48:32;;;;;;;0.40;0.40;;;24.80;63.50;;;;;;6320007;27;20047;-39
2022/07/30 03:51:35;;;;;;;0.75;0.50;;;24.70;63.50;;;;;;6318813;27;20207;-39
2022/07/30 03:54:37;;;;;;;0.77;0.60;;;24.80;63.60;;;;;;6322878;27;20367;-41
2022/07/30 03:58:00;;;;;;;0.40;0.40;;;24.80;63.60;;;;;;6320496;27;20459;-41
2022/07/30 04:01:04;;;;;;;0.80;0.45;;;24.70;63.50;;;;;;6320493;27;20326;-40
2022/07/30 04:04:07;;;;;;;0.73;0.63;;;25.10;64.00;;;;;;6323054;27;20050;-40
2022/07/30 04:07:09;;;;;;;0.60;0.60;;;24.70;64.00;;;;;;6299989;27;20186;-38
2022/07/30 04:10:14;;;;;;;0.70;0.70;;;24.70;64.30;;;;;;6322904;27;20039;-41
2022/07/30 04:13:36;;;;;;;0.55;0.50;;;25.00;64.30;;;;;;6320472;27;20086;-39
2022/07/30 04:16:45;;;;;;;1.00;0.50;;;25.00;64.50;;;;;;6317406;27;20418;-41
2022/07/30 04:19:59;;;;;;;0.57;0.50;;;24.60;64.20;;;;;;6316660;27;20618;-41
2022/07/30 04:23:02;;;;;;;0.85;0.60;;;24.70;64.30;;;;;;6281359;27;20491;-40
2022/07/30 04:26:06;;;;;;;0.60;0.50;;;24.60;64.30;;;;;;6297348;27;21113;-40
2022/07/30 04:29:09;;;;;;;0.82;0.60;;;24.70;64.30;;;;;;6313796;27;20044;-39
2022/07/30 04:32:20;;;;;;;1.05;0.65;;;24.40;64.90;;;;;;6282418;27;20589;-41
2022/07/30 04:35:41;;;;;;;0.60;0.60;;;24.80;64.60;;;;;;6313604;27;20162;-39
2022/07/30 04:38:59;;;;;;;0.57;0.50;;;24.90;64.90;;;;;;6321019;27;20425;-42
2022/07/30 04:42:00;;;;;;;1.38;0.70;;;24.30;64.50;;;;;;6318166;27;20034;-39
2022/07/30 04:45:10;;;;;;;0.80;0.50;;;24.60;64.80;;;;;;6317735;27;20047;-39
2022/07/30 04:48:29;;;;;;;0.65;0.52;;;24.90;64.90;;;;;;6315531;27;20584;-39
2022/07/30 04:51:47;;;;;;;0.60;0.50;;;25.20;65.20;;;;;;6312684;27;20046;-39
2022/07/30 04:54:54;;;;;;;1.33;0.70;;;24.70;64.90;;;;;;6294677;27;20059;-41
2022/07/30 04:57:58;;;;;;;0.68;0.57;;;24.70;65.00;;;;;;6314928;27;20111;-40
2022/07/30 05:01:03;;;;;;;0.98;0.70;;;24.60;65.00;;;;;;6313050;27;20043;-40
2022/07/30 05:04:09;;;;;;;0.77;0.75;;;24.60;65.00;;;;;;6310586;27;20053;-39
2022/07/30 05:07:13;;;;;;;0.88;0.70;;;24.60;65.20;;;;;;6315369;27;20046;-39
2022/07/30 05:10:16;;;;;;;0.80;0.60;;;24.30;64.70;;;;;;6317996;27;20271;-40
2022/07/30 05:13:18;;;;;;;1.33;0.45;;;24.70;65.30;;;;;;6315395;27;20650;-40
2022/07/30 05:16:23;;;;;;;0.70;0.63;;;24.80;65.50;;;;;;6317272;27;20039;-40
2022/07/30 05:19:32;;;;;;;0.75;0.60;;;24.80;65.40;;;;;;6318729;27;20365;-39
2022/07/30 05:22:34;;;;;;;0.82;0.70;;;24.90;65.70;;;;;;6315014;27;20034;-39
2022/07/30 05:25:35;;;;;;;0.82;0.60;;;24.50;65.40;;;;;;6319041;27;20410;-39
2022/07/30 05:28:48;;;;;;;1.08;0.68;;;24.50;65.40;;;;;;6314218;27;20728;-39
2022/07/30 05:32:05;;;;;;;0.80;0.70;;;24.70;65.60;;;;;;6314535;27;21374;-39
2022/07/30 05:35:10;;;;;;;0.95;0.80;;;24.60;65.60;;;;;;6314032;27;20256;-40
2022/07/30 05:38:12;;;;;;;0.90;0.70;;;24.40;65.60;;;;;;6318313;27;20760;-39
2022/07/30 05:41:26;;;;;;;1.23;0.80;;;24.70;65.80;;;;;;6315388;27;20396;-39
2022/07/30 05:44:39;;;;;;;0.77;0.60;;;24.40;65.70;;;;;;6318520;27;20115;-40
2022/07/30 05:47:40;;;;;;;1.00;0.80;;;24.90;65.90;;;;;;6313936;27;20051;-39
2022/07/30 05:50:45;;;;;;;0.80;0.70;;;24.90;66.00;;;;;;6313691;27;20657;-38
2022/07/30 05:53:47;;;;;;;0.60;0.50;;;24.80;65.80;;;;;;6313937;27;20047;-39
2022/07/30 05:57:09;;;;;;;0.60;0.50;;;24.50;65.80;;;;;;6314631;27;20395;-41
2022/07/30 06:00:13;;;;;;;0.90;0.73;;;24.60;65.60;;;;;;6297285;27;20493;-39
2022/07/30 06:03:17;;;;;;;0.90;0.65;;;24.80;66.00;;;;;;6309285;27;20043;-40
2022/07/30 06:06:39;;;;;;;0.70;0.50;;;24.60;66.10;;;;;;6329370;27;20902;-40
2022/07/30 06:09:41;;;;;;;1.02;0.80;;;24.90;66.20;;;;;;6321494;27;20232;-44
2022/07/30 06:12:43;;;;;;;0.95;0.77;;;24.40;66.10;;;;;;6292644;27;20119;-39
2022/07/30 06:15:45;;;;;;;0.60;0.60;;;24.70;66.10;;;;;;6313791;27;20283;-40
2022/07/30 06:18:46;;;;;;;0.60;0.60;;;24.90;66.30;;;;;;6314756;27;21026;-40
2022/07/30 06:22:00;;;;;;;0.70;0.60;;;24.50;66.20;;;;;;6314681;27;20047;-42
2022/07/30 06:25:12;;;;;;;0.90;0.82;;;24.30;66.10;;;;;;6313661;27;20050;-40
2022/07/30 06:28:20;;;;;;;0.50;0.40;;;25.10;66.50;;;;;;6312495;27;20352;-39
2022/07/30 06:31:44;;;;;;;0.60;0.57;;;24.70;66.40;;;;;;6314614;27;20360;-39
2022/07/30 06:34:46;;;;;;;0.40;0.40;;;24.70;66.50;;;;;;6312176;27;20047;-38
2022/07/30 06:37:49;;;;;;;0.60;0.60;;;24.80;66.50;;;;;;6328313;27;20042;-40
2022/07/30 06:41:10;;;;;;;0.60;0.55;;;24.80;66.40;;;;;;6308485;27;20065;-41
2022/07/30 06:44:24;;;;;;;0.80;0.60;;;24.90;66.70;;;;;;6327334;27;20116;-39
2022/07/30 06:47:39;;;;;;;0.50;0.50;;;24.70;66.70;;;;;;6327309;27;20050;-41
2022/07/30 06:50:40;;;;;;;0.50;0.50;;;25.10;66.90;;;;;;6330477;27;20042;-40
2022/07/30 06:53:44;;;;;;;0.52;0.50;;;24.60;66.70;;;;;;6332131;27;20034;-40
2022/07/30 06:57:06;;;;;;;0.65;0.60;;;24.80;66.70;;;;;;6334431;27;20154;-39
2022/07/30 07:00:08;;;;;;;0.40;0.35;;;24.70;66.60;;;;;;6330115;27;20038;-39
2022/07/30 07:03:13;;;;;;;0.38;0.38;;;25.10;67.00;;;;;;6330925;27;20927;-41
2022/07/30 07:06:15;;;;;;;0.45;0.40;;;24.80;67.00;;;;;;6325961;27;20042;-39
2022/07/30 07:09:17;;;;;;;0.43;0.40;;;24.90;67.10;;;;;;6331744;27;20039;-41
2022/07/30 07:12:26;;;;;;;0.60;0.47;;;24.50;66.80;;;;;;6333002;27;20082;-39
2022/07/30 07:15:28;;;;;;;0.50;0.40;;;24.80;67.10;;;;;;6332937;27;20039;-39
2022/07/30 07:18:41;;;;;;;0.68;0.50;;;24.90;67.10;;;;;;6333546;27;20058;-39
2022/07/30 07:21:45;;;;;;;0.40;0.30;;;24.60;66.90;;;;;;6314405;27;20141;-39
2022/07/30 07:24:47;;;;;;;0.40;0.40;;;24.50;66.70;;;;;;6328862;27;20046;-41
2022/07/30 07:27:55;;;;;;;0.45;0.38;;;24.90;67.00;;;;;;6330751;27;20042;-39
2022/07/30 07:31:15;;;;;;;0.55;0.45;;;24.80;66.90;;;;;;6329184;27;20146;-39
2022/07/30 07:34:36;;;;;;;;;;;24.90;67.00;;;;;;6317528;27;20121;-39
2022/07/30 07:37:38;;;;;;;0.68;0.30;;;24.80;67.10;;;;;;6330022;27;19927;-41
2022/07/30 07:40:42;;;;;;;0.38;0.35;;;24.90;66.90;;;;;;6328687;27;20929;-39
2022/07/30 07:43:43;;;;;;;0.30;0.30;;;24.60;66.70;;;;;;6331830;27;20059;-40
2022/07/30 07:46:50;;;;;;;0.30;0.20;;;24.80;66.70;;;;;;6331521;27;20063;-42
2022/07/30 07:49:54;;;;;;;0.65;0.30;;;24.90;66.60;;;;;;6330972;27;20782;-39
2022/07/30 07:52:56;;;;;;;0.40;0.30;;;24.80;66.40;;;;;;6331304;27;20048;-40
2022/07/30 07:56:00;;;;;;;0.50;0.30;;;24.70;66.30;;;;;;6329660;27;20116;-39
2022/07/30 07:59:01;;;;;;;0.63;0.32;;;24.90;66.40;;;;;;6327002;27;20122;-39
2022/07/30 08:02:05;;;;;;;0.30;0.30;;;24.90;66.10;;;;;;6327661;27;20047;-39
2022/07/30 08:05:19;;;;;;;0.73;0.28;;;24.60;66.00;;;;;;6330449;27;20054;-40
2022/07/30 08:08:40;;;;;;;;;;;25.00;65.80;;;;;;6326161;27;20043;-41
2022/07/30 08:12:02;;;;;;;0.70;0.30;;;25.00;66.30;;;;;;6320421;27;20041;-42
2022/07/30 08:15:24;;;;;;;0.22;0.20;;;24.90;65.80;;;;;;6322947;27;20122;-39
2022/07/30 08:18:45;;;;;;;0.20;0.20;;;24.70;65.70;;;;;;6325388;27;20038;-40
2022/07/30 08:21:59;;;;;;;0.63;0.30;;;25.00;65.80;;;;;;6325205;27;20041;-41
2022/07/30 08:25:05;;;;;;;0.30;0.30;;;25.00;65.80;;;;;;6330891;27;20074;-41
2022/07/30 08:28:07;;;;;;;0.20;0.20;;;24.60;65.00;;;;;;6326486;27;20050;-41
2022/07/30 08:31:29;;;;;;;0.20;0.20;;;24.80;65.50;;;;;;6314320;27;20028;-39
2022/07/30 08:34:31;;;;;;;0.35;0.32;;;24.40;65.10;;;;;;6331417;27;20078;-39
2022/07/30 08:37:33;;;;;;;0.30;0.30;;;24.70;65.10;;;;;;6324382;27;20116;-40
2022/07/30 08:40:35;;;;;;;0.17;0.17;;;24.80;65.10;;;;;;6327630;27;20111;-39
2022/07/30 08:43:39;;;;;;;0.43;0.30;;;24.80;65.20;;;;;;6326662;27;20053;-40
2022/07/30 08:46:42;;;;;;;0.32;0.30;;;24.90;64.80;;;;;;6329418;27;20096;-39
2022/07/30 08:50:04;;;;;;;0.40;0.20;;;25.20;64.70;;;;;;6304197;27;20146;-38
2022/07/30 08:53:08;;;;;;;0.20;0.20;;;24.80;64.70;;;;;;6325464;27;20048;-40
2022/07/30 08:56:11;;;;;;;0.20;0.20;;;24.90;64.60;;;;;;6331962;27;20039;-40
2022/07/30 08:59:14;;;;;;;0.40;0.20;;;24.90;65.00;;;;;;6304273;27;21138;-40
2022/07/30 09:02:16;;;;;;;0.28;0.20;;;24.90;64.20;;;;;;6325996;27;20145;-40
2022/07/30 09:05:35;;;;;;;0.20;0.20;;;25.00;64.20;;;;;;6329235;27;20046;-39
2022/07/30 09:08:37;;;;;;;0.20;0.10;;;25.30;64.30;;;;;;6333667;27;20154;-41
2022/07/30 09:11:38;;;;;;;0.35;0.20;;;25.00;63.80;;;;;;6326851;27;20131;-40
2022/07/30 09:14:59;;;;;;;0.10;0.10;;;24.90;63.80;;;;;;6326833;27;20035;-41
2022/07/30 09:18:02;;;;;;;0.28;0.28;;;24.90;63.50;;;;;;6332225;27;20050;-40
2022/07/30 09:21:14;;;;;;;0.20;0.20;;;24.80;63.40;;;;;;6308911;27;20046;-40
2022/07/30 09:24:16;;;;;;;0.55;0.28;;;24.90;63.30;;;;;;6311486;27;20054;-39
2022/07/30 09:27:43;;;;;;;0.20;0.20;;;24.90;63.30;;;;;;6328874;27;20042;-39
2022/07/30 09:31:00;;;;;;;0.40;0.20;;;24.70;62.90;;;;;;6311140;27;20050;-39
2022/07/30 09:34:27;;;;;;;0.20;0.20;;;24.90;63.00;;;;;;6313198;27;20047;-40
2022/07/30 09:37:39;;;;;;;0.63;0.20;;;25.00;62.80;;;;;;6328805;27;20077;-41
2022/07/30 09:40:59;;;;;;;0.22;0.20;;;24.80;62.70;;;;;;6329069;27;20047;-39
2022/07/30 09:44:23;;;;;;;0.45;0.25;;;25.40;62.80;;;;;;6329415;27;20043;-40
2022/07/30 09:47:34;;;;;;;0.60;0.30;;;25.00;62.20;;;;;;6310847;27;20126;-40
2022/07/30 09:50:46;;;;;;;0.28;0.20;;;24.90;62.40;;;;;;6310371;27;20053;-39
2022/07/30 09:53:55;;;;;;;0.63;0.20;;;25.10;62.60;;;;;;6312744;27;20038;-39
2022/07/30 09:57:07;;;;;;;0.20;0.20;;;24.90;62.00;;;;;;6310542;27;20146;-39
2022/07/30 10:00:32;;;;;;;0.20;0.20;;;24.90;62.00;;;;;;6311622;27;20050;-39
2022/07/30 10:03:47;;;;;;;0.30;0.20;;;24.90;61.80;;;;;;6299719;27;20220;-40
2022/07/30 10:07:17;;;;;;;0.17;0.17;;;25.00;61.80;;;;;;6328567;27;20034;-39
2022/07/30 10:10:29;;;;;;;0.20;0.20;;;25.30;62.00;;;;;;6313204;27;20234;-40
2022/07/30 10:13:34;;;;;;;0.20;0.20;;;25.20;61.80;;;;;;6324505;27;20661;-40
2022/07/30 10:16:36;;;;;;;0.10;0.10;;;24.90;61.40;;;;;;6310944;27;20061;-42
2022/07/30 10:19:40;;;;;;;0.43;0.20;;;25.10;61.60;;;;;;6315310;27;20481;-40
2022/07/30 10:22:59;;;;;;;0.40;0.30;;;25.00;61.40;;;;;;6314886;27;20051;-39
2022/07/30 10:26:19;;;;;;;0.20;0.20;;;25.10;61.50;;;;;;6313236;27;20278;-39
2022/07/30 10:29:42;;;;;;;0.10;0.10;;;25.20;61.30;;;;;;6316179;27;20262;-39
2022/07/30 10:32:45;;;;;;;0.20;0.20;;;25.00;61.10;;;;;;6295637;27;20346;-41
2022/07/30 10:35:54;;;;;;;0.40;0.22;;;25.00;61.10;;;;;;6314134;27;20054;-39
2022/07/30 10:38:57;;;;;;;0.20;0.20;;;25.10;60.90;;;;;;6313111;27;20691;-40
2022/07/30 10:42:10;;;;;;;0.10;0.10;;;25.20;60.80;;;;;;6310291;27;20436;-40
2022/07/30 10:45:17;;;;;;;0.20;0.20;;;25.20;60.40;;;;;;6314148;27;20043;-41
2022/07/30 10:48:19;;;;;;;0.20;0.20;;;24.80;60.40;;;;;;6285057;27;20081;-39
2022/07/30 10:51:22;;;;;;;0.20;0.20;;;25.10;60.60;;;;;;6312289;27;21070;-41
2022/07/30 10:54:38;;;;;;;0.30;0.25;;;25.10;60.50;;;;;;6313027;27;20070;-40
2022/07/30 10:57:56;;;;;;;0.20;0.20;;;25.00;60.10;;;;;;6296006;27;20031;-40
2022/07/30 11:00:59;;;;;;;0.20;0.20;;;25.10;60.30;;;;;;6294768;27;20050;-41
2022/07/30 11:04:17;;;;;;;0.35;0.20;;;25.20;60.40;;;;;;6313356;27;20065;-39
2022/07/30 11:07:30;;;;;;;0.30;0.25;;;25.20;60.30;;;;;;6279442;27;20858;-41
2022/07/30 11:10:35;;;;;;;0.20;0.20;;;25.10;60.10;;;;;;6311008;27;20620;-39
2022/07/30 11:13:51;;;;;;;0.15;0.15;;;25.40;60.30;;;;;;6283604;27;20263;-39
2022/07/30 11:16:59;;;;;;;0.25;0.25;;;25.20;60.70;;;;;;6313264;27;20047;-40
2022/07/30 11:20:09;;;;;;;0.38;0.28;;;24.80;59.90;;;;;;6296058;27;21028;-40
2022/07/30 11:23:37;;;;;;;0.30;0.20;;;24.90;59.80;;;;;;6308819;27;20363;-40
2022/07/30 11:26:55;;;;;;;0.22;0.20;;;25.20;60.00;;;;;;6318598;27;20735;-42
2022/07/30 11:29:56;;;;;;;0.20;0.20;;;25.50;60.30;;;;;;6297905;27;20155;-41
2022/07/30 11:33:22;;;;;;;0.40;0.20;;;25.10;60.00;;;;;;6314949;27;20354;-39
2022/07/30 11:36:34;;;;;;;0.22;0.20;;;25.00;60.00;;;;;;6299510;27;20264;-41
2022/07/30 11:40:03;;;;;;;0.10;0.10;;;25.20;60.10;;;;;;6318105;27;20051;-40
2022/07/30 11:43:24;;;;;;;0.20;0.20;;;25.20;60.00;;;;;;6318292;27;20367;-41
2022/07/30 11:46:47;;;;;;;0.15;0.15;;;25.20;60.00;;;;;;6316534;27;20393;-40
2022/07/30 11:49:49;;;;;;;0.43;0.20;;;25.50;60.30;;;;;;6295998;27;20042;-39
2022/07/30 11:52:52;;;;;;;0.20;0.20;;;25.40;59.80;;;;;;6295816;27;20042;-42
2022/07/30 11:55:56;;;;;;;0.28;0.20;;;25.50;60.20;;;;;;6319253;27;20473;-39
2022/07/30 11:59:03;;;;;;;0.17;0.10;;;25.30;60.00;;;;;;6293652;27;20389;-42
2022/07/30 12:02:05;;;;;;;0.25;0.20;;;25.20;59.90;;;;;;6295683;27;20401;-40
2022/07/30 12:05:10;;;;;;;0.30;0.28;;;25.10;60.00;;;;;;6312089;27;20066;-42
2022/07/30 12:08:12;;;;;;;0.20;0.17;;;25.40;60.20;;;;;;6319274;27;20155;-41
2022/07/30 12:11:36;;;;;;;0.20;0.15;;;25.10;59.80;;;;;;6280034;27;20213;-39
2022/07/30 12:14:38;;;;;;;0.13;0.10;;;25.30;59.80;;;;;;6296510;27;20710;-39
2022/07/30 12:17:42;;;;;;;0.30;0.20;;;25.00;59.60;;;;;;6318723;27;20910;-39
2022/07/30 12:20:53;;;;;;;0.20;0.20;;;25.00;59.50;;;;;;6312011;27;20210;-42
2022/07/30 12:23:57;;;;;;;0.40;0.20;;;25.30;59.90;;;;;;6295556;27;20402;-41
2022/07/30 12:27:03;;;;;;;0.30;0.20;;;25.20;59.60;;;;;;6292852;27;20743;-38
2022/07/30 12:30:08;;;;;;;0.20;0.20;;;25.30;59.90;;;;;;6315957;27;20182;-42
2022/07/30 12:33:09;;;;;;;0.22;0.20;;;25.10;59.60;;;;;;6312478;27;20046;-40
2022/07/30 12:36:23;;;;;;;0.20;0.20;;;25.30;59.90;;;;;;6315115;27;20553;-39
2022/07/30 12:39:26;;;;;;;0.20;0.20;;;25.40;59.80;;;;;;6314913;27;20397;-40
2022/07/30 12:42:28;;;;;;;0.20;0.15;;;25.30;59.70;;;;;;6310957;27;20097;-43
2022/07/30 12:45:32;;;;;;;0.38;0.30;;;25.60;60.00;;;;;;6307877;27;20237;-40
2022/07/30 12:48:56;;;;;;;0.52;0.22;;;25.20;60.10;;;;;;6287883;27;20043;-39
2022/07/30 12:51:58;;;;;;;0.28;0.20;;;25.30;59.60;;;;;;6308381;27;20489;-39
2022/07/30 12:55:05;;;;;;;0.47;0.20;;;25.50;59.80;;;;;;6311960;27;20066;-40
2022/07/30 12:58:07;;;;;;;0.20;0.20;;;25.30;59.50;;;;;;6289118;27;20585;-39
2022/07/30 13:01:11;;;;;;;0.22;0.20;;;25.30;59.40;;;;;;6312511;27;20459;-41
2022/07/30 13:04:13;;;;;;;0.20;0.20;;;25.40;59.40;;;;;;6295546;27;20281;-41
2022/07/30 13:07:16;;;;;;;0.20;0.20;;;25.20;59.20;;;;;;6315517;27;20035;-40
2022/07/30 13:10:17;;;;;;;0.38;0.30;;;25.30;59.40;;;;;;6311207;27;20992;-39
2022/07/30 13:13:19;;;;;;;0.20;0.20;;;25.30;59.40;;;;;;6307359;27;20047;-41
2022/07/30 13:16:21;;;;;;;0.30;0.22;;;25.50;59.60;;;;;;6316146;27;20198;-41
2022/07/30 13:19:23;;;;;;;0.30;0.30;;;25.30;59.30;;;;;;6308566;27;20042;-39
2022/07/30 13:22:24;;;;;;;0.30;0.30;;;25.40;59.20;;;;;;6313932;27;20853;-41
2022/07/30 13:25:31;;;;;;;0.10;0.10;;;25.40;59.30;;;;;;6311678;27;20258;-41
2022/07/30 13:28:41;;;;;;;0.22;0.20;;;25.40;59.20;;;;;;6314978;27;20050;-42
2022/07/30 13:31:43;;;;;;;0.13;0.13;;;25.50;59.10;;;;;;6312746;27;20418;-39
2022/07/30 13:34:45;;;;;;;0.22;0.20;;;25.50;59.10;;;;;;6317383;27;20252;-39
2022/07/30 13:37:50;;;;;;;0.40;0.40;;;25.50;59.20;;;;;;6296072;27;20751;-41
2022/07/30 13:40:51;;;;;;;0.35;0.30;;;25.40;59.00;;;;;;6301385;27;20160;-39
2022/07/30 13:43:53;;;;;;;0.20;0.20;;;25.50;58.90;;;;;;6299491;27;20070;-42
2022/07/30 13:46:55;;;;;;;0.28;0.28;;;25.60;59.10;;;;;;6300522;27;20392;-40
2022/07/30 13:50:03;;;;;;;0.32;0.20;;;25.40;58.80;;;;;;6304638;27;20042;-39
2022/07/30 13:53:04;;;;;;;0.35;0.25;;;25.70;59.10;;;;;;6305991;27;20336;-39
2022/07/30 13:56:06;;;;;;;0.25;0.25;;;25.50;58.90;;;;;;6309150;27;20047;-39
2022/07/30 13:59:13;;;;;;;0.22;0.20;;;25.50;58.90;;;;;;6308283;27;20477;-41
2022/07/30 14:02:15;;;;;;;0.30;0.30;;;25.50;58.60;;;;;;6310175;27;20317;-39
2022/07/30 14:05:17;;;;;;;0.20;0.20;;;26.10;59.20;;;;;;6311909;27;20145;-40
2022/07/30 14:08:22;;;;;;;0.20;0.20;;;25.50;58.30;;;;;;6310320;27;20279;-39
2022/07/30 14:11:24;;;;;;;0.30;0.30;;;25.50;58.70;;;;;;6308154;27;20150;-41
2022/07/30 14:14:25;;;;;;;0.20;0.20;;;25.30;58.40;;;;;;6308276;27;20436;-39
2022/07/30 14:17:28;;;;;;;0.30;0.30;;;25.60;58.70;;;;;;6305992;27;20567;-41
2022/07/30 14:20:29;;;;;;;0.40;0.28;;;25.50;58.20;;;;;;6307559;27;20648;-40
2022/07/30 14:23:31;;;;;;;0.20;0.20;;;25.40;58.40;;;;;;6308073;27;20047;-41
2022/07/30 14:26:33;;;;;;;0.30;0.30;;;25.50;58.30;;;;;;6313673;27;20218;-40
2022/07/30 14:29:38;;;;;;;0.30;0.30;;;25.90;58.60;;;;;;6309244;27;20083;-41
2022/07/30 14:32:40;;;;;;;0.30;0.30;;;25.40;58.00;;;;;;6308516;27;20191;-39
2022/07/30 14:35:41;;;;;;;0.30;0.30;;;25.50;58.20;;;;;;6306605;27;20280;-40
2022/07/30 14:38:43;;;;;;;0.38;0.20;;;25.40;58.20;;;;;;6305654;27;20339;-39
2022/07/30 14:41:45;;;;;;;0.20;0.20;;;25.40;58.10;;;;;;6305616;27;20058;-41
2022/07/30 14:44:47;;;;;;;0.30;0.20;;;25.50;56.70;;;;;;6308741;27;20236;-46
2022/07/30 14:47:50;;;;;;;0.20;0.20;;;25.40;58.00;;;;;;6304795;27;20459;-40
2022/07/30 14:50:51;;;;;;;0.30;0.30;;;25.50;57.90;;;;;;6309904;27;20146;-40
2022/07/30 14:54:13;;;;;;;;;;;25.70;58.30;;;;;;6291442;27;20115;-40
2022/07/30 14:57:15;;;;;;;0.22;0.20;;;25.40;58.20;;;;;;6312968;27;20339;-39
2022/07/30 15:00:16;;;;;;;0.20;0.20;;;25.50;58.10;;;;;;6308205;27;20842;-41
2022/07/30 15:03:19;;;;;;;0.30;0.30;;;25.40;58.50;;;;;;6310859;27;20407;-39
2022/07/30 15:06:24;;;;;;;0.25;0.25;;;25.50;57.90;;;;;;6291013;27;20043;-39
2022/07/30 15:09:26;;;;;;;0.30;0.25;;;25.40;57.70;;;;;;6294273;27;20075;-39
2022/07/30 15:12:27;;;;;;;0.40;0.40;;;25.50;57.80;;;;;;6307985;27;20082;-41
2022/07/30 15:15:30;;;;;;;0.30;0.30;;;25.50;57.90;;;;;;6314631;27;20101;-41
2022/07/30 15:18:39;;;;;;;0.30;0.30;;;25.20;57.80;;;;;;6311909;27;20038;-41
2022/07/30 15:21:43;;;;;;;0.20;0.20;;;25.30;57.80;;;;;;6314772;27;20239;-39
2022/07/30 15:24:45;;;;;;;0.30;0.22;;;25.50;57.80;;;;;;6310240;27;20074;-40
2022/07/30 15:27:46;;;;;;;0.30;0.28;;;25.50;58.30;;;;;;6313962;27;20294;-41
2022/07/30 15:30:48;;;;;;;0.70;0.30;;;25.30;58.10;;;;;;6314990;27;20304;-40
2022/07/30 15:33:50;;;;;;;0.30;0.30;;;25.20;58.00;;;;;;6314467;27;20311;-39
2022/07/30 15:36:53;;;;;;;0.30;0.30;;;25.60;58.40;;;;;;6315612;27;20947;-39
2022/07/30 15:39:57;;;;;;;0.30;0.20;;;25.40;58.20;;;;;;6311600;27;20344;-39
2022/07/30 15:42:59;;;;;;;0.20;0.20;;;25.50;58.50;;;;;;6312995;27;20805;-40
2022/07/30 15:46:00;;;;;;;0.40;0.25;;;25.50;58.60;;;;;;6315025;27;20478;-42
2022/07/30 15:49:02;;;;;;;0.20;0.20;;;25.60;58.80;;;;;;6311768;27;20283;-41
2022/07/30 15:52:06;;;;;;;0.20;0.20;;;25.20;58.40;;;;;;6295403;27;20055;-41
2022/07/30 15:55:08;;;;;;;0.40;0.40;;;25.30;58.30;;;;;;6290884;27;20510;-41
2022/07/30 15:58:12;;;;;;;0.20;0.20;;;25.40;58.40;;;;;;6308036;27;20046;-41
2022/07/30 16:01:14;;;;;;;0.38;0.30;;;25.10;58.40;;;;;;6309317;27;20533;-41
2022/07/30 16:04:16;;;;;;;0.43;0.30;;;25.60;58.80;;;;;;6314322;27;20062;-40
2022/07/30 16:07:21;;;;;;;0.13;0.13;;;25.40;58.90;;;;;;6312606;27;20712;-42
2022/07/30 16:10:22;;;;;;;0.30;0.30;;;25.50;59.20;;;;;;6313347;27;20535;-40
2022/07/30 16:13:24;;;;;;;0.20;0.20;;;25.50;59.40;;;;;;6311832;27;20680;-42